createdAt,value
2022-09-30T00:01:25.728Z,11.43
2022-09-30T00:03:57.202Z,10.60
2022-09-30T00:06:28.193Z,10.57
2022-09-30T00:08:56.355Z,10.02
2022-09-30T00:11:28.740Z,10.23
2022-09-30T00:13:57.604Z,10.63
2022-09-30T00:16:26.016Z,10.63
2022-09-30T00:18:55.422Z,9.98
2022-09-30T00:21:23.550Z,10.15
2022-09-30T00:23:50.999Z,10.82
2022-09-30T00:26:20.162Z,10.85
2022-09-30T00:28:55.076Z,9.90
2022-09-30T00:31:22.792Z,10.55
2022-09-30T00:34:07.043Z,11.12
2022-09-30T00:36:45.549Z,10.70
2022-09-30T00:39:26.814Z,10.82
2022-09-30T00:41:56.908Z,11.40
2022-09-30T00:44:48.062Z,12.95
2022-09-30T00:47:41.313Z,14.25
2022-09-30T00:50:25.435Z,13.82
2022-09-30T00:52:59.985Z,13.02
2022-09-30T00:55:33.434Z,14.05
2022-09-30T00:58:00.862Z,11.82
2022-09-30T01:00:28.553Z,13.70
2022-09-30T01:02:55.998Z,11.98
2022-09-30T01:05:25.136Z,12.00
2022-09-30T01:07:53.829Z,10.75
2022-09-30T01:10:21.247Z,10.43
2022-09-30T01:12:48.592Z,10.93
2022-09-30T01:15:16.435Z,7.78
2022-09-30T01:17:57.989Z,6.22
2022-09-30T01:20:37.018Z,6.95
2022-09-30T01:23:27.889Z,5.95
2022-09-30T01:26:14.719Z,6.30
2022-09-30T01:28:50.887Z,4.72
2022-09-30T01:31:37.922Z,4.03
2022-09-30T01:34:20.104Z,3.40
2022-09-30T01:37:03.716Z,3.53
2022-09-30T01:39:37.461Z,3.25
2022-09-30T01:42:42.514Z,2.42
2022-09-30T01:45:27.483Z,3.10
2022-09-30T01:48:05.410Z,2.85
2022-09-30T01:50:47.409Z,2.80
2022-09-30T01:53:36.880Z,3.90
2022-09-30T01:56:23.101Z,3.70
2022-09-30T01:59:07.534Z,3.60
2022-09-30T02:01:39.328Z,4.03
2022-09-30T02:04:12.900Z,4.62
2022-09-30T02:06:42.065Z,4.15
2022-09-30T02:09:25.773Z,5.07
2022-09-30T02:11:56.347Z,4.82
2022-09-30T02:14:28.530Z,4.62
2022-09-30T02:17:02.781Z,5.30
2022-09-30T02:19:37.045Z,4.45
2022-09-30T02:22:08.707Z,6.75
2022-09-30T02:24:39.188Z,5.82
2022-09-30T02:27:12.150Z,6.78
2022-09-30T02:29:41.932Z,5.72
2022-09-30T02:32:18.695Z,6.70
2022-09-30T02:34:53.529Z,7.93
2022-09-30T02:37:24.606Z,9.13
2022-09-30T02:40:06.657Z,8.80
2022-09-30T02:42:34.112Z,8.30
2022-09-30T02:45:16.424Z,7.93
2022-09-30T02:47:54.342Z,8.40
2022-09-30T02:50:32.556Z,10.20
2022-09-30T02:53:14.802Z,12.52
2022-09-30T02:56:03.321Z,10.23
2022-09-30T02:58:30.638Z,9.93
2022-09-30T03:00:58.421Z,11.23
2022-09-30T03:03:32.446Z,12.05
2022-09-30T03:06:00.146Z,11.65
2022-09-30T03:08:27.488Z,9.90
2022-09-30T03:10:55.668Z,9.98
2022-09-30T03:13:35.175Z,9.32
2022-09-30T03:16:24.917Z,10.13
2022-09-30T03:19:09.187Z,9.40
2022-09-30T03:21:58.738Z,9.30
2022-09-30T03:24:49.340Z,7.90
2022-09-30T03:27:33.893Z,8.20
2022-09-30T03:30:06.116Z,8.93
2022-09-30T03:32:42.543Z,9.13
2022-09-30T03:35:17.550Z,8.15
2022-09-30T03:37:54.281Z,8.30
2022-09-30T03:40:55.047Z,8.95
2022-09-30T03:43:29.654Z,8.68
2022-09-30T03:46:03.053Z,8.75
2022-09-30T03:48:30.424Z,10.18
2022-09-30T03:50:58.101Z,9.52
2022-09-30T03:53:26.306Z,9.50
2022-09-30T03:55:54.091Z,9.93
2022-09-30T03:58:23.450Z,9.90
2022-09-30T04:00:52.962Z,10.85
2022-09-30T04:03:21.549Z,10.23
2022-09-30T04:05:49.058Z,9.82
2022-09-30T04:08:16.498Z,10.60
2022-09-30T04:10:44.243Z,10.23
2022-09-30T04:13:11.708Z,11.05
2022-09-30T04:15:39.165Z,10.75
2022-09-30T04:18:06.934Z,9.65
2022-09-30T04:20:34.303Z,11.00
2022-09-30T04:23:01.784Z,10.13
2022-09-30T04:25:29.630Z,10.77
2022-09-30T04:27:57.045Z,9.93
2022-09-30T04:30:27.155Z,10.43
2022-09-30T04:32:55.721Z,10.68
2022-09-30T04:35:23.626Z,10.80
2022-09-30T04:37:50.921Z,11.15
2022-09-30T04:40:18.614Z,11.77
2022-09-30T04:42:47.546Z,11.10
2022-09-30T04:45:14.893Z,13.65
2022-09-30T04:47:45.685Z,10.50
2022-09-30T04:50:13.309Z,11.85
2022-09-30T04:52:43.917Z,12.07
2022-09-30T04:55:11.645Z,12.35
2022-09-30T04:57:39.139Z,12.00
2022-09-30T05:00:09.246Z,12.23
2022-09-30T05:02:36.819Z,12.35
2022-09-30T05:05:04.587Z,13.30
2022-09-30T05:07:32.142Z,13.52
2022-09-30T05:09:59.708Z,13.25
2022-09-30T05:12:27.140Z,13.45
2022-09-30T05:14:54.492Z,14.27
2022-09-30T05:17:22.164Z,14.57
2022-09-30T05:19:49.529Z,14.50
2022-09-30T05:22:16.846Z,14.70
2022-09-30T05:24:44.517Z,13.85
2022-09-30T05:27:11.952Z,15.50
2022-09-30T05:29:39.808Z,16.58
2022-09-30T05:32:07.919Z,12.90
2022-09-30T05:34:35.295Z,14.13
2022-09-30T05:37:02.668Z,14.98
2022-09-30T05:39:30.252Z,13.73
2022-09-30T05:41:58.259Z,13.80
2022-09-30T05:44:25.727Z,13.95
2022-09-30T05:46:53.692Z,14.40
2022-09-30T05:49:21.992Z,14.77
2022-09-30T05:51:49.514Z,14.73
2022-09-30T05:54:17.122Z,14.85
2022-09-30T05:56:44.494Z,14.27
2022-09-30T05:59:11.956Z,16.37
2022-09-30T06:01:39.669Z,14.60
2022-09-30T06:04:07.302Z,13.13
2022-09-30T06:06:34.640Z,12.68
2022-09-30T06:09:02.111Z,13.30
2022-09-30T06:11:29.763Z,13.93
2022-09-30T06:13:57.422Z,14.27
2022-09-30T06:16:25.090Z,13.60
2022-09-30T06:18:52.985Z,14.25
2022-09-30T06:21:20.979Z,13.07
2022-09-30T06:23:48.379Z,12.77
2022-09-30T06:26:16.210Z,12.70
2022-09-30T06:28:44.690Z,13.95
2022-09-30T06:31:12.115Z,12.98
2022-09-30T06:33:39.741Z,12.63
2022-09-30T06:36:07.246Z,12.65
2022-09-30T06:38:37.377Z,12.43
2022-09-30T06:41:05.409Z,11.95
2022-09-30T06:43:39.305Z,12.35
2022-09-30T06:46:29.549Z,11.55
2022-09-30T06:49:09.107Z,11.38
2022-09-30T06:51:40.071Z,11.75
2022-09-30T06:54:09.056Z,11.05
2022-09-30T06:56:37.008Z,9.65
2022-09-30T06:59:04.693Z,9.35
2022-09-30T07:01:32.054Z,8.60
2022-09-30T07:03:59.445Z,9.15
2022-09-30T07:06:27.114Z,8.57
2022-09-30T07:08:55.302Z,8.45
2022-09-30T07:11:24.033Z,8.20
2022-09-30T07:13:51.675Z,7.72
2022-09-30T07:16:20.010Z,7.82
2022-09-30T07:18:47.504Z,8.07
2022-09-30T07:21:16.131Z,9.00
2022-09-30T07:23:47.628Z,9.02
2022-09-30T07:26:16.142Z,8.80
2022-09-30T07:28:43.709Z,9.40
2022-09-30T07:31:31.840Z,8.13
2022-09-30T07:33:59.879Z,9.88
2022-09-30T07:36:32.779Z,10.05
2022-09-30T07:39:06.910Z,10.57
2022-09-30T07:41:36.033Z,11.02
2022-09-30T07:44:06.344Z,10.57
2022-09-30T07:46:34.514Z,10.85
2022-09-30T07:49:04.182Z,10.77
2022-09-30T07:51:34.407Z,10.68
2022-09-30T07:54:07.308Z,10.85
2022-09-30T07:56:57.795Z,11.57
2022-09-30T07:59:22.417Z,11.40
2022-09-30T08:01:50.826Z,11.48
2022-09-30T08:04:18.971Z,11.27
2022-09-30T08:06:48.980Z,11.85
2022-09-30T08:09:17.420Z,12.88
2022-09-30T08:11:45.122Z,13.57
2022-09-30T08:14:17.171Z,14.55
2022-09-30T08:16:44.835Z,15.48
2022-09-30T08:19:16.873Z,15.50
2022-09-30T08:21:45.250Z,15.20
2022-09-30T08:24:13.319Z,14.55
2022-09-30T08:26:40.867Z,15.55
2022-09-30T08:29:08.221Z,13.30
2022-09-30T08:31:35.847Z,15.15
2022-09-30T08:34:03.789Z,14.45
2022-09-30T08:36:31.100Z,12.98
2022-09-30T08:38:59.217Z,12.43
2022-09-30T08:41:36.116Z,14.48
2022-09-30T08:44:28.909Z,13.13
2022-09-30T08:47:05.315Z,14.20
2022-09-30T08:50:05.231Z,12.07
2022-09-30T08:52:48.509Z,12.05
2022-09-30T08:55:23.145Z,11.63
2022-09-30T08:57:50.513Z,10.27
2022-09-30T09:00:18.342Z,10.55
2022-09-30T09:02:59.380Z,10.68
2022-09-30T09:05:51.726Z,8.88
2022-09-30T09:08:49.115Z,8.07
2022-09-30T09:11:33.772Z,6.22
2022-09-30T09:14:13.874Z,6.10
2022-09-30T09:17:16.357Z,6.68
2022-09-30T09:19:59.263Z,5.35
2022-09-30T09:22:28.166Z,4.60
2022-09-30T09:24:55.797Z,4.72
2022-09-30T09:27:37.167Z,4.28
2022-09-30T09:30:10.877Z,3.60
2022-09-30T09:32:38.790Z,4.22
2022-09-30T09:35:17.318Z,3.90
2022-09-30T09:38:22.118Z,4.05
2022-09-30T09:41:11.656Z,4.62
2022-09-30T09:43:50.823Z,4.75
2022-09-30T09:46:42.093Z,5.03
2022-09-30T09:49:20.977Z,4.80
2022-09-30T09:51:53.772Z,5.37
2022-09-30T09:54:21.263Z,4.40
2022-09-30T09:56:52.957Z,5.37
2022-09-30T09:59:20.753Z,5.00
2022-09-30T10:01:53.718Z,4.93
2022-09-30T10:04:26.621Z,4.75
2022-09-30T10:07:01.111Z,5.05
2022-09-30T10:09:28.540Z,4.60
2022-09-30T10:12:08.032Z,4.22
2022-09-30T10:14:46.774Z,4.07
2022-09-30T10:17:28.213Z,4.12
2022-09-30T10:20:07.574Z,4.40
2022-09-30T10:22:35.954Z,3.92
2022-09-30T10:25:15.974Z,3.20
2022-09-30T10:27:59.300Z,3.60
2022-09-30T10:30:46.583Z,3.83
2022-09-30T10:33:22.381Z,3.25
2022-09-30T10:36:05.476Z,3.25
2022-09-30T10:38:44.802Z,2.78
2022-09-30T10:41:12.377Z,2.50
2022-09-30T10:43:44.897Z,2.90
2022-09-30T10:46:29.176Z,2.33
2022-09-30T10:49:24.576Z,2.28
2022-09-30T10:51:57.382Z,2.50
2022-09-30T10:54:50.650Z,2.65
2022-09-30T10:57:37.868Z,2.50
2022-09-30T11:00:19.625Z,1.80
2022-09-30T11:03:00.305Z,1.70
2022-09-30T11:05:31.238Z,1.87
2022-09-30T11:08:11.309Z,1.90
2022-09-30T11:10:58.631Z,2.08
2022-09-30T11:13:31.536Z,1.80
2022-09-30T11:16:36.681Z,1.33
2022-09-30T11:19:16.643Z,1.67
2022-09-30T11:21:55.934Z,1.50
2022-09-30T11:24:37.446Z,1.40
2022-09-30T11:27:49.760Z,1.17
2022-09-30T11:30:35.770Z,1.00
2022-09-30T11:33:09.303Z,1.20
2022-09-30T11:35:49.091Z,1.10
2022-09-30T11:38:45.779Z,1.20
2022-09-30T11:41:24.597Z,1.15
2022-09-30T11:44:05.535Z,1.20
2022-09-30T11:47:10.433Z,1.05
2022-09-30T11:49:53.553Z,1.00
2022-09-30T11:52:47.835Z,1.00
2022-09-30T11:55:44.797Z,1.12
2022-09-30T11:58:39.402Z,1.37
2022-09-30T12:01:13.739Z,1.35
2022-09-30T12:03:48.492Z,1.12
2022-09-30T12:06:27.213Z,1.15
2022-09-30T12:08:59.853Z,1.40
2022-09-30T12:11:49.660Z,1.23
2022-09-30T12:14:21.143Z,1.48
2022-09-30T12:16:48.549Z,1.23
2022-09-30T12:19:28.226Z,1.40
2022-09-30T12:22:00.329Z,1.20
2022-09-30T12:24:36.167Z,1.50
2022-09-30T12:27:24.686Z,1.60
2022-09-30T12:30:20.747Z,1.30
2022-09-30T12:33:22.117Z,1.40
2022-09-30T12:36:03.623Z,1.50
2022-09-30T12:38:43.261Z,1.67
2022-09-30T12:41:41.410Z,1.77
2022-09-30T12:44:23.968Z,1.50
2022-09-30T12:47:19.333Z,1.67
2022-09-30T12:49:46.902Z,2.30
2022-09-30T12:52:17.012Z,2.10
2022-09-30T12:55:09.138Z,1.77
2022-09-30T12:57:39.699Z,2.55
2022-09-30T13:00:14.632Z,1.75
2022-09-30T13:02:44.049Z,2.22
2022-09-30T13:05:34.561Z,1.87
2022-09-30T13:08:05.102Z,1.90
2022-09-30T13:10:38.247Z,1.70
2022-09-30T13:13:23.650Z,2.03
2022-09-30T13:15:52.169Z,2.03
2022-09-30T13:18:19.654Z,2.47
2022-09-30T13:20:55.053Z,3.10
2022-09-30T13:23:35.227Z,3.50
2022-09-30T13:26:03.110Z,3.72
2022-09-30T13:28:37.013Z,3.60
2022-09-30T13:31:19.318Z,3.62
2022-09-30T13:34:02.474Z,2.85
2022-09-30T13:36:38.701Z,2.22
2022-09-30T13:39:23.575Z,2.20
2022-09-30T13:42:30.012Z,2.08
2022-09-30T13:45:04.496Z,1.92
2022-09-30T13:47:52.130Z,1.73
2022-09-30T13:50:31.643Z,1.58
2022-09-30T13:53:01.177Z,2.50
2022-09-30T13:55:50.233Z,2.53
2022-09-30T13:58:42.818Z,2.50
2022-09-30T14:01:34.888Z,2.90
2022-09-30T14:04:27.233Z,2.58
2022-09-30T14:07:06.541Z,2.08
2022-09-30T14:10:13.187Z,1.70
2022-09-30T14:12:49.404Z,1.73
2022-09-30T14:15:45.388Z,2.20
2022-09-30T14:18:46.393Z,1.80
2022-09-30T14:21:44.633Z,2.22
2022-09-30T14:24:17.635Z,1.70
2022-09-30T14:26:45.188Z,2.28
2022-09-30T14:29:30.396Z,1.60
2022-09-30T14:32:00.003Z,2.17
2022-09-30T14:34:27.458Z,2.50
2022-09-30T14:39:39.919Z,2.45
2022-09-30T14:42:11.829Z,2.87
2022-09-30T14:44:39.174Z,2.62
2022-09-30T14:47:06.796Z,3.22
2022-09-30T14:49:36.067Z,3.72
2022-09-30T14:52:03.890Z,2.90
2022-09-30T14:54:32.505Z,2.60
2022-09-30T14:57:02.280Z,2.30
2022-09-30T14:59:34.650Z,2.97
2022-09-30T15:02:05.166Z,2.80
2022-09-30T15:04:38.392Z,2.70
2022-09-30T15:07:09.963Z,2.70
2022-09-30T15:09:43.481Z,2.67
2022-09-30T15:12:23.717Z,2.12
2022-09-30T15:14:51.774Z,2.08
2022-09-30T15:17:20.742Z,2.50
2022-09-30T15:19:50.232Z,2.83
2022-09-30T15:22:17.685Z,2.55
2022-09-30T15:24:45.795Z,2.58
2022-09-30T15:27:21.826Z,3.40
2022-09-30T15:29:55.934Z,6.10
2022-09-30T15:32:24.482Z,4.82
2022-09-30T15:34:52.355Z,3.28
2022-09-30T15:37:24.029Z,2.42
2022-09-30T15:40:10.289Z,2.90
2022-09-30T15:42:45.671Z,2.78
2022-09-30T15:45:33.670Z,3.35
2022-09-30T15:48:05.458Z,2.50
2022-09-30T15:50:36.513Z,2.60
2022-09-30T15:53:22.703Z,2.78
2022-09-30T15:55:53.396Z,2.95
2022-09-30T15:58:26.884Z,2.60
2022-09-30T16:00:54.664Z,2.53
2022-09-30T16:03:29.017Z,2.50
2022-09-30T16:06:10.871Z,2.05
2022-09-30T16:08:44.565Z,2.60
2022-09-30T16:11:26.559Z,2.17
2022-09-30T16:13:54.189Z,2.08
2022-09-30T16:16:23.445Z,2.53
2022-09-30T16:18:51.927Z,2.03
2022-09-30T16:21:44.845Z,2.83
2022-09-30T16:24:32.195Z,3.22
2022-09-30T16:27:02.999Z,3.83
2022-09-30T16:29:30.454Z,3.70
2022-09-30T16:31:57.918Z,4.05
2022-09-30T16:34:29.203Z,4.10
2022-09-30T16:37:05.187Z,2.92
2022-09-30T16:39:32.787Z,3.17
2022-09-30T16:42:00.101Z,2.72
2022-09-30T16:44:27.509Z,3.03
2022-09-30T16:46:55.159Z,3.10
2022-09-30T16:49:22.491Z,2.70
2022-09-30T16:51:49.911Z,3.30
2022-09-30T16:54:17.511Z,2.97
2022-09-30T16:56:44.858Z,6.07
2022-09-30T16:59:15.955Z,8.10
2022-09-30T17:01:43.563Z,7.20
2022-09-30T17:04:14.067Z,5.28
2022-09-30T17:06:44.828Z,5.95
2022-09-30T17:09:12.203Z,7.05
2022-09-30T17:11:40.185Z,9.82
2022-09-30T17:14:07.835Z,5.95
2022-09-30T17:16:36.411Z,7.30
2022-09-30T17:19:04.671Z,6.20
2022-09-30T17:21:32.275Z,6.87
2022-09-30T17:23:59.631Z,6.53
2022-09-30T17:26:26.946Z,7.07
2022-09-30T17:29:00.245Z,7.85
2022-09-30T17:31:36.372Z,7.15
2022-09-30T17:34:07.989Z,8.70
2022-09-30T17:36:36.556Z,8.48
2022-09-30T17:39:05.213Z,7.70
2022-09-30T17:41:51.499Z,9.00
2022-09-30T17:44:19.151Z,10.20
2022-09-30T17:46:46.549Z,8.77
2022-09-30T17:49:14.035Z,9.98
2022-09-30T17:51:41.663Z,9.75
2022-09-30T17:54:09.115Z,11.68
2022-09-30T17:56:39.021Z,11.98
2022-09-30T17:59:07.015Z,9.63
2022-09-30T18:01:35.875Z,9.95
2022-09-30T18:04:04.058Z,10.90
2022-09-30T18:06:32.242Z,12.05
2022-09-30T18:09:00.379Z,10.88
2022-09-30T18:11:31.211Z,8.88
2022-09-30T18:13:59.483Z,11.43
2022-09-30T18:16:30.439Z,11.45
2022-09-30T18:18:58.597Z,14.10
2022-09-30T18:21:26.014Z,9.75
2022-09-30T18:23:53.961Z,5.32
2022-09-30T18:26:23.974Z,6.55
2022-09-30T18:28:52.841Z,9.00
2022-09-30T18:31:28.446Z,10.95
2022-09-30T18:33:56.395Z,9.82
2022-09-30T18:36:24.617Z,8.15
2022-09-30T18:38:52.617Z,7.03
2022-09-30T18:41:20.817Z,6.25
2022-09-30T18:43:50.629Z,6.90
2022-09-30T18:46:19.721Z,6.95
2022-09-30T18:48:50.774Z,4.28
2022-09-30T18:51:18.895Z,6.62
2022-09-30T18:53:46.604Z,7.78
2022-09-30T18:56:13.942Z,7.78
2022-09-30T18:58:41.275Z,7.37
2022-09-30T19:01:08.973Z,7.68
2022-09-30T19:03:36.467Z,7.57
2022-09-30T19:06:07.932Z,7.85
2022-09-30T19:08:35.558Z,6.03
2022-09-30T19:11:13.936Z,6.25
2022-09-30T19:13:43.035Z,6.55
2022-09-30T19:16:11.174Z,5.47
2022-09-30T19:18:39.767Z,6.37
2022-09-30T19:21:08.356Z,5.47
2022-09-30T19:23:35.881Z,6.60
2022-09-30T19:26:03.334Z,7.00
2022-09-30T19:28:36.658Z,5.80
2022-09-30T19:31:12.413Z,6.50
2022-09-30T19:33:49.213Z,5.60
2022-09-30T19:36:19.776Z,5.30
2022-09-30T19:38:47.465Z,6.95
2022-09-30T19:41:18.140Z,7.32
2022-09-30T19:43:49.116Z,6.30
2022-09-30T19:46:16.919Z,5.65
2022-09-30T19:48:45.193Z,5.90
2022-09-30T19:51:13.974Z,6.68
2022-09-30T19:53:44.996Z,5.87
2022-09-30T19:56:21.564Z,7.37
2022-09-30T19:58:53.398Z,6.97
2022-09-30T20:01:22.236Z,7.18
2022-09-30T20:03:51.033Z,5.78
2022-09-30T20:06:18.386Z,5.85
2022-09-30T20:08:51.294Z,7.00
2022-09-30T20:11:20.273Z,6.78
2022-09-30T20:14:11.561Z,7.43
2022-09-30T20:16:39.587Z,6.95
2022-09-30T20:19:07.094Z,7.35
2022-09-30T20:21:35.220Z,7.00
2022-09-30T20:24:03.053Z,6.45
2022-09-30T20:26:31.918Z,6.75
2022-09-30T20:29:00.217Z,5.55
2022-09-30T20:31:27.896Z,5.45
2022-09-30T20:33:58.953Z,5.65
2022-09-30T20:36:28.021Z,5.93
2022-09-30T20:38:59.190Z,6.00
2022-09-30T20:41:27.049Z,5.28
2022-09-30T20:43:54.452Z,6.30
2022-09-30T20:46:22.658Z,5.35
2022-09-30T20:48:50.135Z,6.10
2022-09-30T20:51:18.627Z,5.45
2022-09-30T20:53:52.933Z,6.00
2022-09-30T20:56:21.663Z,5.40
2022-09-30T20:58:49.843Z,5.65
2022-09-30T21:01:21.309Z,6.32
2022-09-30T21:03:53.124Z,4.60
2022-09-30T21:06:25.054Z,5.97
2022-09-30T21:08:53.529Z,6.07
2022-09-30T21:11:23.323Z,6.30
2022-09-30T21:13:52.183Z,6.47
2022-09-30T21:16:24.667Z,5.75
2022-09-30T21:18:52.498Z,7.35
2022-09-30T21:21:21.473Z,5.97
2022-09-30T21:23:48.929Z,7.20
2022-09-30T21:26:17.066Z,7.22
2022-09-30T21:28:49.267Z,7.37
2022-09-30T21:31:20.306Z,8.13
2022-09-30T21:33:58.445Z,7.47
2022-09-30T21:36:27.238Z,8.95
2022-09-30T21:38:55.014Z,7.68
2022-09-30T21:41:22.842Z,6.78
2022-09-30T21:43:50.206Z,6.60
2022-09-30T21:46:18.705Z,8.35
2022-09-30T21:48:46.209Z,7.22
2022-09-30T21:51:13.895Z,6.95
2022-09-30T21:53:41.647Z,7.20
2022-09-30T21:56:11.589Z,6.85
2022-09-30T21:58:39.057Z,7.12
2022-09-30T22:01:07.021Z,6.65
2022-09-30T22:03:38.681Z,7.78
2022-09-30T22:06:07.404Z,7.43
2022-09-30T22:08:36.208Z,7.50
2022-09-30T22:11:07.024Z,7.70
2022-09-30T22:13:34.669Z,6.78
2022-09-30T22:16:04.051Z,7.60
2022-09-30T22:18:32.270Z,6.93
2022-09-30T22:21:08.019Z,5.95
2022-09-30T22:23:35.415Z,7.87
2022-09-30T22:26:22.807Z,7.65
2022-09-30T22:28:54.948Z,7.62
2022-09-30T22:31:24.379Z,7.75
2022-09-30T22:34:12.234Z,7.18
2022-09-30T22:36:58.548Z,8.70
2022-09-30T22:39:25.927Z,7.65
2022-09-30T22:41:54.399Z,7.10
2022-09-30T22:44:26.341Z,8.65
2022-09-30T22:46:54.126Z,8.60
2022-09-30T22:49:21.912Z,7.57
2022-09-30T22:51:56.317Z,7.85
2022-09-30T22:54:24.775Z,8.07
2022-09-30T22:56:52.593Z,8.63
2022-09-30T22:59:19.993Z,9.27
2022-09-30T23:01:49.233Z,9.13
2022-09-30T23:04:17.241Z,7.62
2022-09-30T23:06:48.671Z,8.05
2022-09-30T23:09:17.201Z,9.70
2022-09-30T23:11:45.308Z,8.23
2022-09-30T23:14:13.093Z,7.85
2022-09-30T23:16:40.879Z,7.62
2022-09-30T23:19:08.375Z,8.43
2022-09-30T23:21:36.236Z,6.97
2022-09-30T23:24:04.250Z,9.02
2022-09-30T23:26:31.644Z,10.02
2022-09-30T23:29:02.810Z,9.38
2022-09-30T23:31:30.652Z,9.32
2022-09-30T23:34:02.398Z,10.32
2022-09-30T23:36:31.335Z,8.68
2022-09-30T23:39:05.230Z,9.27
2022-09-30T23:41:34.172Z,10.05
2022-09-30T23:44:02.150Z,9.90
2022-09-30T23:46:29.525Z,7.95
2022-09-30T23:48:57.239Z,8.15
2022-09-30T23:51:24.671Z,9.25
2022-09-30T23:53:52.027Z,10.25
2022-09-30T23:56:19.722Z,10.00
2022-09-30T23:58:47.360Z,9.10
